sensor_id;sensor_type;location;lat;lon;timestamp;pressure;altitude;pressure_sealevel;temperature;humidity
26487;BME280;14425;56.136;40.360;2023-05-08T00:00:57;100905.19;;;5.85;51.15
26487;BME280;14425;56.136;40.360;2023-05-08T00:03:23;100902.44;;;6.29;49.32
26487;BME280;14425;56.136;40.360;2023-05-08T00:05:48;100903.47;;;6.43;49.12
26487;BME280;14425;56.136;40.360;2023-05-08T00:08:14;100901.44;;;6.39;48.74
26487;BME280;14425;56.136;40.360;2023-05-08T00:10:40;100894.31;;;6.58;48.44
26487;BME280;14425;56.136;40.360;2023-05-08T00:13:05;100901.66;;;6.77;47.52
26487;BME280;14425;56.136;40.360;2023-05-08T00:15:31;100899.41;;;6.70;47.68
26487;BME280;14425;56.136;40.360;2023-05-08T00:17:56;100896.66;;;6.55;47.92
26487;BME280;14425;56.136;40.360;2023-05-08T00:20:22;100899.31;;;6.69;47.76
26487;BME280;14425;56.136;40.360;2023-05-08T00:22:48;100898.47;;;6.33;48.43
26487;BME280;14425;56.136;40.360;2023-05-08T00:25:13;100904.69;;;6.48;48.42
26487;BME280;14425;56.136;40.360;2023-05-08T00:27:39;100902.78;;;6.45;48.41
26487;BME280;14425;56.136;40.360;2023-05-08T00:30:06;100903.69;;;6.58;48.15
26487;BME280;14425;56.136;40.360;2023-05-08T00:32:32;100904.34;;;6.55;47.89
26487;BME280;14425;56.136;40.360;2023-05-08T00:34:57;100910.16;;;6.53;47.55
26487;BME280;14425;56.136;40.360;2023-05-08T00:37:23;100903.22;;;6.63;47.79
26487;BME280;14425;56.136;40.360;2023-05-08T00:39:48;100909.00;;;6.73;47.10
26487;BME280;14425;56.136;40.360;2023-05-08T00:42:14;100902.69;;;6.56;47.83
26487;BME280;14425;56.136;40.360;2023-05-08T00:44:39;100904.47;;;6.21;48.64
26487;BME280;14425;56.136;40.360;2023-05-08T00:47:06;100910.94;;;6.16;48.73
26487;BME280;14425;56.136;40.360;2023-05-08T00:49:33;100910.13;;;6.05;49.13
26487;BME280;14425;56.136;40.360;2023-05-08T00:52:01;100905.69;;;6.03;49.28
26487;BME280;14425;56.136;40.360;2023-05-08T00:54:28;100911.34;;;5.99;49.62
26487;BME280;14425;56.136;40.360;2023-05-08T00:56:54;100915.94;;;6.03;49.68
26487;BME280;14425;56.136;40.360;2023-05-08T00:59:20;100917.06;;;6.30;49.01
26487;BME280;14425;56.136;40.360;2023-05-08T01:01:47;100918.16;;;6.34;48.75
26487;BME280;14425;56.136;40.360;2023-05-08T01:04:13;100920.50;;;6.31;48.56
26487;BME280;14425;56.136;40.360;2023-05-08T01:06:39;100921.75;;;6.47;48.15
26487;BME280;14425;56.136;40.360;2023-05-08T01:09:05;100921.03;;;6.62;47.29
26487;BME280;14425;56.136;40.360;2023-05-08T01:14:41;100929.63;;;6.39;48.08
26487;BME280;14425;56.136;40.360;2023-05-08T01:25:47;100925.50;;;6.17;49.00
26487;BME280;14425;56.136;40.360;2023-05-08T01:28:35;100927.19;;;6.17;48.94
26487;BME280;14425;56.136;40.360;2023-05-08T01:36:42;100943.91;;;6.23;49.21
26487;BME280;14425;56.136;40.360;2023-05-08T01:39:24;100937.66;;;6.20;48.87
26487;BME280;14425;56.136;40.360;2023-05-08T01:41:57;100949.22;;;6.03;49.49
26487;BME280;14425;56.136;40.360;2023-05-08T01:44:28;100949.25;;;5.81;50.58
26487;BME280;14425;56.136;40.360;2023-05-08T01:47:02;100943.47;;;5.83;50.50
26487;BME280;14425;56.136;40.360;2023-05-08T01:49:33;100950.13;;;5.69;50.72
26487;BME280;14425;56.136;40.360;2023-05-08T01:52:06;100957.03;;;5.82;50.63
26487;BME280;14425;56.136;40.360;2023-05-08T01:54:35;100951.44;;;5.98;50.12
26487;BME280;14425;56.136;40.360;2023-05-08T01:57:05;100960.25;;;6.02;50.08
26487;BME280;14425;56.136;40.360;2023-05-08T01:59:34;100950.44;;;5.96;50.13
26487;BME280;14425;56.136;40.360;2023-05-08T02:02:01;100955.25;;;6.27;48.90
26487;BME280;14425;56.136;40.360;2023-05-08T02:04:28;100951.25;;;6.19;49.83
26487;BME280;14425;56.136;40.360;2023-05-08T02:06:56;100954.72;;;6.19;49.46
26487;BME280;14425;56.136;40.360;2023-05-08T02:09:23;100950.72;;;6.35;48.98
26487;BME280;14425;56.136;40.360;2023-05-08T02:11:51;100960.16;;;6.36;48.65
26487;BME280;14425;56.136;40.360;2023-05-08T02:14:19;100958.63;;;6.26;48.90
26487;BME280;14425;56.136;40.360;2023-05-08T02:16:46;100960.28;;;6.37;48.69
26487;BME280;14425;56.136;40.360;2023-05-08T02:19:14;100961.72;;;6.22;49.21
26487;BME280;14425;56.136;40.360;2023-05-08T02:21:40;100965.09;;;6.44;48.89
26487;BME280;14425;56.136;40.360;2023-05-08T02:24:12;100966.97;;;6.47;48.44
26487;BME280;14425;56.136;40.360;2023-05-08T02:26:38;100959.72;;;6.41;48.76
26487;BME280;14425;56.136;40.360;2023-05-08T02:29:06;100963.63;;;6.24;48.81
26487;BME280;14425;56.136;40.360;2023-05-08T02:31:32;100972.78;;;6.56;48.65
26487;BME280;14425;56.136;40.360;2023-05-08T02:33:59;100974.00;;;6.61;48.17
26487;BME280;14425;56.136;40.360;2023-05-08T02:36:26;100974.09;;;6.63;48.16
26487;BME280;14425;56.136;40.360;2023-05-08T02:38:55;100974.75;;;6.72;47.88
26487;BME280;14425;56.136;40.360;2023-05-08T02:41:23;100975.69;;;6.61;48.20
26487;BME280;14425;56.136;40.360;2023-05-08T02:43:50;100971.19;;;6.70;47.67
26487;BME280;14425;56.136;40.360;2023-05-08T02:46:47;100980.56;;;6.70;47.99
26487;BME280;14425;56.136;40.360;2023-05-08T02:49:30;100985.69;;;6.70;47.66
26487;BME280;14425;56.136;40.360;2023-05-08T02:52:16;100983.38;;;6.61;47.86
26487;BME280;14425;56.136;40.360;2023-05-08T02:54:53;100983.34;;;6.73;47.60
26487;BME280;14425;56.136;40.360;2023-05-08T02:57:38;100988.59;;;6.74;47.85
26487;BME280;14425;56.136;40.360;2023-05-08T03:02:44;100991.38;;;6.77;47.44
26487;BME280;14425;56.136;40.360;2023-05-08T03:05:33;100996.16;;;6.84;47.90
26487;BME280;14425;56.136;40.360;2023-05-08T03:08:02;100984.22;;;6.97;47.30
26487;BME280;14425;56.136;40.360;2023-05-08T03:10:32;100989.13;;;7.06;47.57
26487;BME280;14425;56.136;40.360;2023-05-08T03:13:02;100987.66;;;7.09;47.43
26487;BME280;14425;56.136;40.360;2023-05-08T03:15:43;100993.09;;;7.14;46.81
26487;BME280;14425;56.136;40.360;2023-05-08T03:18:24;101000.38;;;7.08;47.82
26487;BME280;14425;56.136;40.360;2023-05-08T03:20:53;100999.47;;;7.07;47.98
26487;BME280;14425;56.136;40.360;2023-05-08T03:23:20;101010.19;;;7.01;47.93
26487;BME280;14425;56.136;40.360;2023-05-08T03:25:47;101013.63;;;7.02;48.06
26487;BME280;14425;56.136;40.360;2023-05-08T03:28:14;101011.84;;;7.13;47.57
26487;BME280;14425;56.136;40.360;2023-05-08T03:30:42;101012.59;;;7.24;47.32
26487;BME280;14425;56.136;40.360;2023-05-08T03:33:08;101010.63;;;7.08;48.20
26487;BME280;14425;56.136;40.360;2023-05-08T03:35:36;101015.72;;;7.31;47.13
26487;BME280;14425;56.136;40.360;2023-05-08T03:38:03;101016.00;;;7.48;46.54
26487;BME280;14425;56.136;40.360;2023-05-08T03:40:29;101008.41;;;7.49;46.75
26487;BME280;14425;56.136;40.360;2023-05-08T03:42:55;101023.06;;;7.27;47.57
26487;BME280;14425;56.136;40.360;2023-05-08T03:45:22;101021.97;;;7.23;47.88
26487;BME280;14425;56.136;40.360;2023-05-08T03:47:50;101028.66;;;7.33;48.08
26487;BME280;14425;56.136;40.360;2023-05-08T03:50:18;101023.84;;;7.37;47.30
26487;BME280;14425;56.136;40.360;2023-05-08T03:52:43;101024.53;;;7.60;47.08
26487;BME280;14425;56.136;40.360;2023-05-08T03:55:10;101027.00;;;7.58;46.57
26487;BME280;14425;56.136;40.360;2023-05-08T03:57:52;101035.75;;;7.49;48.01
26487;BME280;14425;56.136;40.360;2023-05-08T04:00:30;101028.56;;;7.56;47.38
26487;BME280;14425;56.136;40.360;2023-05-08T04:05:48;101041.31;;;7.55;48.22
26487;BME280;14425;56.136;40.360;2023-05-08T04:08:18;101039.53;;;7.54;48.69
26487;BME280;14425;56.136;40.360;2023-05-08T04:10:54;101037.03;;;7.67;48.56
26487;BME280;14425;56.136;40.360;2023-05-08T04:13:26;101033.59;;;7.92;47.72
26487;BME280;14425;56.136;40.360;2023-05-08T04:16:08;101033.44;;;8.02;48.49
26487;BME280;14425;56.136;40.360;2023-05-08T04:18:37;101032.00;;;7.94;48.00
26487;BME280;14425;56.136;40.360;2023-05-08T04:21:09;101035.03;;;7.88;47.57
26487;BME280;14425;56.136;40.360;2023-05-08T04:23:37;101039.75;;;8.07;47.26
26487;BME280;14425;56.136;40.360;2023-05-08T04:26:05;101035.69;;;7.98;47.24
26487;BME280;14425;56.136;40.360;2023-05-08T04:28:33;101034.09;;;7.74;48.68
26487;BME280;14425;56.136;40.360;2023-05-08T04:31:00;101032.56;;;7.65;48.47
26487;BME280;14425;56.136;40.360;2023-05-08T04:33:27;101036.72;;;7.88;48.57
26487;BME280;14425;56.136;40.360;2023-05-08T04:35:53;101033.94;;;7.85;47.79
26487;BME280;14425;56.136;40.360;2023-05-08T04:38:18;101031.09;;;7.93;47.69
26487;BME280;14425;56.136;40.360;2023-05-08T04:40:44;101038.03;;;7.94;46.67
26487;BME280;14425;56.136;40.360;2023-05-08T04:43:09;101040.00;;;8.24;47.99
26487;BME280;14425;56.136;40.360;2023-05-08T04:45:35;101036.63;;;8.50;46.06
26487;BME280;14425;56.136;40.360;2023-05-08T04:48:00;101048.53;;;8.36;48.22
26487;BME280;14425;56.136;40.360;2023-05-08T04:50:26;101041.94;;;8.14;48.93
26487;BME280;14425;56.136;40.360;2023-05-08T04:52:51;101039.50;;;8.68;45.64
26487;BME280;14425;56.136;40.360;2023-05-08T04:55:17;101039.69;;;8.58;46.00
26487;BME280;14425;56.136;40.360;2023-05-08T04:57:42;101038.91;;;8.45;46.81
26487;BME280;14425;56.136;40.360;2023-05-08T05:00:09;101050.75;;;8.18;47.47
26487;BME280;14425;56.136;40.360;2023-05-08T05:02:35;101034.97;;;8.77;46.50
26487;BME280;14425;56.136;40.360;2023-05-08T05:05:01;101038.72;;;9.09;45.45
26487;BME280;14425;56.136;40.360;2023-05-08T05:07:26;101050.81;;;8.97;46.98
26487;BME280;14425;56.136;40.360;2023-05-08T05:09:51;101037.72;;;9.07;45.73
26487;BME280;14425;56.136;40.360;2023-05-08T05:12:17;101045.34;;;8.52;47.29
26487;BME280;14425;56.136;40.360;2023-05-08T05:14:42;101042.91;;;8.28;49.07
26487;BME280;14425;56.136;40.360;2023-05-08T05:17:08;101050.94;;;8.46;48.89
26487;BME280;14425;56.136;40.360;2023-05-08T05:19:33;101056.25;;;8.36;49.16
26487;BME280;14425;56.136;40.360;2023-05-08T05:21:59;101054.72;;;8.51;47.74
26487;BME280;14425;56.136;40.360;2023-05-08T05:24:24;101040.31;;;8.94;46.29
26487;BME280;14425;56.136;40.360;2023-05-08T05:26:50;101050.22;;;9.42;43.68
26487;BME280;14425;56.136;40.360;2023-05-08T05:29:15;101052.06;;;9.30;46.11
26487;BME280;14425;56.136;40.360;2023-05-08T05:31:41;101049.88;;;9.23;43.79
26487;BME280;14425;56.136;40.360;2023-05-08T05:34:06;101054.94;;;8.81;45.38
26487;BME280;14425;56.136;40.360;2023-05-08T05:36:32;101053.63;;;8.61;43.78
26487;BME280;14425;56.136;40.360;2023-05-08T05:38:58;101045.75;;;8.85;45.09
26487;BME280;14425;56.136;40.360;2023-05-08T05:41:23;101052.38;;;8.95;44.80
26487;BME280;14425;56.136;40.360;2023-05-08T05:43:50;101052.97;;;9.17;44.77
26487;BME280;14425;56.136;40.360;2023-05-08T05:46:15;101049.38;;;9.29;42.13
26487;BME280;14425;56.136;40.360;2023-05-08T05:48:42;101047.78;;;9.72;41.77
26487;BME280;14425;56.136;40.360;2023-05-08T05:51:07;101050.06;;;9.96;42.33
26487;BME280;14425;56.136;40.360;2023-05-08T05:53:33;101047.41;;;9.94;41.10
26487;BME280;14425;56.136;40.360;2023-05-08T05:55:58;101052.97;;;9.87;39.88
26487;BME280;14425;56.136;40.360;2023-05-08T05:58:24;101052.22;;;10.03;38.82
26487;BME280;14425;56.136;40.360;2023-05-08T06:00:49;101049.28;;;9.69;39.30
26487;BME280;14425;56.136;40.360;2023-05-08T06:03:15;101050.38;;;10.30;37.58
26487;BME280;14425;56.136;40.360;2023-05-08T06:05:41;101055.75;;;10.33;37.58
26487;BME280;14425;56.136;40.360;2023-05-08T06:08:06;101055.75;;;10.63;37.43
26487;BME280;14425;56.136;40.360;2023-05-08T06:10:33;101048.00;;;10.78;35.72
26487;BME280;14425;56.136;40.360;2023-05-08T06:12:58;101063.97;;;10.13;36.79
26487;BME280;14425;56.136;40.360;2023-05-08T06:15:24;101064.97;;;8.90;38.82
26487;BME280;14425;56.136;40.360;2023-05-08T06:17:49;101071.13;;;9.47;38.82
26487;BME280;14425;56.136;40.360;2023-05-08T06:20:15;101065.72;;;10.14;36.67
26487;BME280;14425;56.136;40.360;2023-05-08T06:22:41;101065.31;;;10.21;36.29
26487;BME280;14425;56.136;40.360;2023-05-08T06:25:07;101056.25;;;11.02;34.50
26487;BME280;14425;56.136;40.360;2023-05-08T06:27:34;101059.78;;;11.19;33.83
26487;BME280;14425;56.136;40.360;2023-05-08T06:30:00;101060.72;;;11.53;33.96
26487;BME280;14425;56.136;40.360;2023-05-08T06:32:25;101062.22;;;11.97;33.23
26487;BME280;14425;56.136;40.360;2023-05-08T06:34:51;101062.34;;;11.83;32.02
26487;BME280;14425;56.136;40.360;2023-05-08T06:37:17;101059.53;;;12.12;32.90
26487;BME280;14425;56.136;40.360;2023-05-08T06:39:42;101048.44;;;13.19;32.97
26487;BME280;14425;56.136;40.360;2023-05-08T06:42:08;101050.47;;;12.89;31.99
26487;BME280;14425;56.136;40.360;2023-05-08T06:44:33;101054.16;;;12.76;32.35
26487;BME280;14425;56.136;40.360;2023-05-08T06:46:59;101054.34;;;12.63;31.65
26487;BME280;14425;56.136;40.360;2023-05-08T06:49:25;101050.38;;;12.35;29.84
26487;BME280;14425;56.136;40.360;2023-05-08T06:51:50;101045.22;;;12.87;29.38
26487;BME280;14425;56.136;40.360;2023-05-08T06:54:16;101047.56;;;12.83;29.71
26487;BME280;14425;56.136;40.360;2023-05-08T06:56:42;101047.03;;;13.44;30.29
26487;BME280;14425;56.136;40.360;2023-05-08T06:59:07;101045.91;;;13.57;30.53
26487;BME280;14425;56.136;40.360;2023-05-08T07:01:33;101038.78;;;13.53;29.00
26487;BME280;14425;56.136;40.360;2023-05-08T07:03:59;101058.91;;;11.35;30.87
26487;BME280;14425;56.136;40.360;2023-05-08T07:06:25;101052.69;;;11.00;32.80
26487;BME280;14425;56.136;40.360;2023-05-08T07:08:52;101052.16;;;11.06;32.26
26487;BME280;14425;56.136;40.360;2023-05-08T07:11:18;101049.72;;;11.24;32.19
26487;BME280;14425;56.136;40.360;2023-05-08T07:13:43;101049.44;;;10.88;33.23
26487;BME280;14425;56.136;40.360;2023-05-08T07:16:13;101051.50;;;11.10;32.83
26487;BME280;14425;56.136;40.360;2023-05-08T07:18:38;101051.19;;;10.89;33.19
26487;BME280;14425;56.136;40.360;2023-05-08T07:21:04;101030.03;;;11.75;31.50
26487;BME280;14425;56.136;40.360;2023-05-08T07:23:29;101045.81;;;10.69;31.86
26487;BME280;14425;56.136;40.360;2023-05-08T07:25:55;101058.25;;;10.47;32.51
26487;BME280;14425;56.136;40.360;2023-05-08T07:28:21;101052.00;;;10.88;32.13
26487;BME280;14425;56.136;40.360;2023-05-08T07:30:47;101053.44;;;10.83;32.37
26487;BME280;14425;56.136;40.360;2023-05-08T07:33:12;101053.81;;;10.59;32.61
26487;BME280;14425;56.136;40.360;2023-05-08T07:35:38;101058.44;;;10.50;32.65
26487;BME280;14425;56.136;40.360;2023-05-08T07:38:05;101048.47;;;12.31;31.05
26487;BME280;14425;56.136;40.360;2023-05-08T07:40:30;101046.16;;;12.89;29.64
26487;BME280;14425;56.136;40.360;2023-05-08T07:42:56;101040.09;;;13.62;29.06
26487;BME280;14425;56.136;40.360;2023-05-08T07:45:21;101031.47;;;14.02;28.97
26487;BME280;14425;56.136;40.360;2023-05-08T07:47:51;101019.91;;;14.77;27.63
26487;BME280;14425;56.136;40.360;2023-05-08T07:50:17;101018.81;;;15.38;27.52
26487;BME280;14425;56.136;40.360;2023-05-08T07:52:43;101016.22;;;15.61;27.00
26487;BME280;14425;56.136;40.360;2023-05-08T07:55:11;101029.34;;;14.96;27.43
26487;BME280;14425;56.136;40.360;2023-05-08T07:57:39;101034.38;;;13.50;28.25
26487;BME280;14425;56.136;40.360;2023-05-08T08:00:07;101036.47;;;12.85;29.98
26487;BME280;14425;56.136;40.360;2023-05-08T08:02:32;101046.72;;;11.80;30.04
26487;BME280;14425;56.136;40.360;2023-05-08T08:04:58;101041.16;;;11.41;30.59
26487;BME280;14425;56.136;40.360;2023-05-08T08:07:23;101040.41;;;11.59;31.65
26487;BME280;14425;56.136;40.360;2023-05-08T08:09:49;101043.50;;;12.01;31.54
26487;BME280;14425;56.136;40.360;2023-05-08T08:12:14;101043.88;;;12.43;31.48
26487;BME280;14425;56.136;40.360;2023-05-08T08:14:40;101031.75;;;12.59;31.50
26487;BME280;14425;56.136;40.360;2023-05-08T08:17:05;101035.09;;;12.39;31.15
26487;BME280;14425;56.136;40.360;2023-05-08T08:19:31;101024.59;;;12.02;31.69
26487;BME280;14425;56.136;40.360;2023-05-08T08:21:56;101045.16;;;11.20;33.06
26487;BME280;14425;56.136;40.360;2023-05-08T08:24:22;101033.53;;;12.25;31.72
26487;BME280;14425;56.136;40.360;2023-05-08T08:26:48;101039.38;;;12.05;31.81
26487;BME280;14425;56.136;40.360;2023-05-08T08:29:13;101030.63;;;12.71;30.89
26487;BME280;14425;56.136;40.360;2023-05-08T08:31:39;101023.44;;;12.66;30.89
26487;BME280;14425;56.136;40.360;2023-05-08T08:34:04;101038.34;;;12.35;32.05
26487;BME280;14425;56.136;40.360;2023-05-08T08:36:30;101034.91;;;11.86;32.02
26487;BME280;14425;56.136;40.360;2023-05-08T08:38:57;101047.75;;;11.20;33.38
26487;BME280;14425;56.136;40.360;2023-05-08T08:41:23;101042.72;;;11.06;35.04
26487;BME280;14425;56.136;40.360;2023-05-08T08:43:48;101045.19;;;11.05;34.06
26487;BME280;14425;56.136;40.360;2023-05-08T08:46:14;101039.22;;;10.75;34.81
26487;BME280;14425;56.136;40.360;2023-05-08T08:48:45;101043.91;;;11.28;33.79
26487;BME280;14425;56.136;40.360;2023-05-08T08:51:30;101041.50;;;11.48;33.98
26487;BME280;14425;56.136;40.360;2023-05-08T08:54:22;101026.13;;;12.85;32.99
26487;BME280;14425;56.136;40.360;2023-05-08T08:56:49;101027.56;;;13.34;32.28
26487;BME280;14425;56.136;40.360;2023-05-08T08:59:16;101032.19;;;13.04;32.15
26487;BME280;14425;56.136;40.360;2023-05-08T09:01:47;101039.66;;;12.27;33.07
26487;BME280;14425;56.136;40.360;2023-05-08T09:04:15;101037.81;;;12.77;33.62
26487;BME280;14425;56.136;40.360;2023-05-08T09:06:40;101027.00;;;13.79;32.10
26487;BME280;14425;56.136;40.360;2023-05-08T09:09:06;101031.69;;;13.30;31.73
26487;BME280;14425;56.136;40.360;2023-05-08T09:11:32;101035.03;;;13.28;31.67
26487;BME280;14425;56.136;40.360;2023-05-08T09:13:58;101031.16;;;14.35;31.07
26487;BME280;14425;56.136;40.360;2023-05-08T09:16:24;101021.09;;;14.63;30.61
26487;BME280;14425;56.136;40.360;2023-05-08T09:18:50;101021.16;;;14.87;30.32
26487;BME280;14425;56.136;40.360;2023-05-08T09:21:16;101030.47;;;15.03;29.85
26487;BME280;14425;56.136;40.360;2023-05-08T09:26:26;101018.81;;;15.61;29.05
26487;BME280;14425;56.136;40.360;2023-05-08T09:29:13;101015.56;;;16.68;28.98
26487;BME280;14425;56.136;40.360;2023-05-08T09:31:59;101009.34;;;17.47;27.73
26487;BME280;14425;56.136;40.360;2023-05-08T09:34:28;100998.44;;;17.30;28.07
26487;BME280;14425;56.136;40.360;2023-05-08T09:37:11;101012.72;;;16.08;29.18
26487;BME280;14425;56.136;40.360;2023-05-08T09:39:38;101008.34;;;15.12;29.30
26487;BME280;14425;56.136;40.360;2023-05-08T09:42:08;101026.53;;;15.12;30.54
26487;BME280;14425;56.136;40.360;2023-05-08T09:45:00;101016.78;;;13.07;32.30
26487;BME280;14425;56.136;40.360;2023-05-08T09:47:25;101016.13;;;12.57;33.65
26487;BME280;14425;56.136;40.360;2023-05-08T09:50:00;101024.84;;;12.59;34.47
26487;BME280;14425;56.136;40.360;2023-05-08T09:52:27;101031.28;;;11.98;35.20
26487;BME280;14425;56.136;40.360;2023-05-08T09:55:03;101021.59;;;12.63;34.81
26487;BME280;14425;56.136;40.360;2023-05-08T09:57:37;101027.88;;;13.22;34.13
26487;BME280;14425;56.136;40.360;2023-05-08T10:00:08;101026.56;;;12.94;34.23
26487;BME280;14425;56.136;40.360;2023-05-08T10:02:36;101027.72;;;13.19;33.61
26487;BME280;14425;56.136;40.360;2023-05-08T10:05:02;101027.41;;;13.13;33.95
26487;BME280;14425;56.136;40.360;2023-05-08T10:07:34;101021.22;;;14.25;32.65
26487;BME280;14425;56.136;40.360;2023-05-08T10:10:04;101014.72;;;14.56;32.88
26487;BME280;14425;56.136;40.360;2023-05-08T10:12:31;101011.22;;;15.67;30.96
26487;BME280;14425;56.136;40.360;2023-05-08T10:14:57;101005.00;;;15.39;29.52
26487;BME280;14425;56.136;40.360;2023-05-08T10:17:34;101001.34;;;16.31;29.64
26487;BME280;14425;56.136;40.360;2023-05-08T10:20:06;100990.53;;;16.98;29.53
26487;BME280;14425;56.136;40.360;2023-05-08T10:22:36;100994.66;;;16.13;28.52
26487;BME280;14425;56.136;40.360;2023-05-08T10:25:02;100996.09;;;16.56;28.86
26487;BME280;14425;56.136;40.360;2023-05-08T10:27:47;100987.41;;;17.10;28.96
26487;BME280;14425;56.136;40.360;2023-05-08T10:30:20;100981.44;;;18.42;28.14
26487;BME280;14425;56.136;40.360;2023-05-08T10:32:48;100978.56;;;18.31;27.40
26487;BME280;14425;56.136;40.360;2023-05-08T10:35:16;100981.84;;;16.45;27.40
26487;BME280;14425;56.136;40.360;2023-05-08T10:37:43;100992.03;;;15.17;30.28
26487;BME280;14425;56.136;40.360;2023-05-08T10:40:10;101004.66;;;14.85;29.81
26487;BME280;14425;56.136;40.360;2023-05-08T10:42:37;100997.75;;;14.02;31.87
26487;BME280;14425;56.136;40.360;2023-05-08T10:45:04;100996.88;;;13.61;32.46
26487;BME280;14425;56.136;40.360;2023-05-08T10:47:47;100993.72;;;12.57;32.75
26487;BME280;14425;56.136;40.360;2023-05-08T10:50:25;100999.78;;;12.58;32.71
26487;BME280;14425;56.136;40.360;2023-05-08T10:52:58;100995.72;;;12.63;31.10
26487;BME280;14425;56.136;40.360;2023-05-08T10:55:31;100990.97;;;12.54;31.63
26487;BME280;14425;56.136;40.360;2023-05-08T11:03:24;100992.41;;;13.78;30.67
26487;BME280;14425;56.136;40.360;2023-05-08T11:05:51;100982.50;;;13.89;29.88
26487;BME280;14425;56.136;40.360;2023-05-08T11:08:25;100982.72;;;13.74;29.82
26487;BME280;14425;56.136;40.360;2023-05-08T11:13:31;100976.53;;;14.11;29.74
26487;BME280;14425;56.136;40.360;2023-05-08T11:15:57;100975.19;;;13.41;29.44
26487;BME280;14425;56.136;40.360;2023-05-08T11:18:23;100975.28;;;12.15;31.34
26487;BME280;14425;56.136;40.360;2023-05-08T11:21:01;100966.78;;;13.65;31.85
26487;BME280;14425;56.136;40.360;2023-05-08T11:23:30;100956.72;;;15.46;29.01
26487;BME280;14425;56.136;40.360;2023-05-08T11:26:00;100957.09;;;16.31;28.89
26487;BME280;14425;56.136;40.360;2023-05-08T11:28:30;100952.69;;;16.84;27.56
26487;BME280;14425;56.136;40.360;2023-05-08T11:30:56;100949.38;;;17.17;26.25
26487;BME280;14425;56.136;40.360;2023-05-08T11:33:33;100954.78;;;15.88;27.99
26487;BME280;14425;56.136;40.360;2023-05-08T11:36:20;100952.94;;;14.26;28.77
26487;BME280;14425;56.136;40.360;2023-05-08T11:39:07;100970.31;;;14.08;30.41
26487;BME280;14425;56.136;40.360;2023-05-08T11:41:32;100958.63;;;13.96;30.28
26487;BME280;14425;56.136;40.360;2023-05-08T11:46:41;100963.81;;;13.96;30.18
26487;BME280;14425;56.136;40.360;2023-05-08T11:49:12;100971.22;;;14.29;29.66
26487;BME280;14425;56.136;40.360;2023-05-08T11:51:39;100970.94;;;13.61;30.60
26487;BME280;14425;56.136;40.360;2023-05-08T11:54:13;100971.22;;;12.92;31.49
26487;BME280;14425;56.136;40.360;2023-05-08T11:56:39;100965.91;;;12.89;31.34
26487;BME280;14425;56.136;40.360;2023-05-08T11:59:06;100964.78;;;12.48;32.15
26487;BME280;14425;56.136;40.360;2023-05-08T12:01:33;100970.34;;;12.74;32.08
26487;BME280;14425;56.136;40.360;2023-05-08T12:04:00;100967.03;;;13.32;31.65
26487;BME280;14425;56.136;40.360;2023-05-08T12:06:27;100959.25;;;14.12;31.12
26487;BME280;14425;56.136;40.360;2023-05-08T12:08:52;100950.84;;;14.17;30.62
26487;BME280;14425;56.136;40.360;2023-05-08T12:11:22;100960.22;;;13.73;29.96
26487;BME280;14425;56.136;40.360;2023-05-08T12:13:52;100968.81;;;13.53;30.06
26487;BME280;14425;56.136;40.360;2023-05-08T12:16:18;100947.25;;;13.54;29.14
26487;BME280;14425;56.136;40.360;2023-05-08T12:18:48;100951.56;;;13.53;29.47
26487;BME280;14425;56.136;40.360;2023-05-08T12:21:14;100949.69;;;13.90;28.90
26487;BME280;14425;56.136;40.360;2023-05-08T12:23:40;100952.78;;;13.61;29.03
26487;BME280;14425;56.136;40.360;2023-05-08T12:26:07;100948.31;;;13.98;29.85
26487;BME280;14425;56.136;40.360;2023-05-08T12:28:32;100950.50;;;14.31;28.89
26487;BME280;14425;56.136;40.360;2023-05-08T12:30:58;100937.06;;;14.83;28.39
26487;BME280;14425;56.136;40.360;2023-05-08T12:33:24;100940.38;;;14.16;28.61
26487;BME280;14425;56.136;40.360;2023-05-08T12:35:50;100944.56;;;14.54;28.01
26487;BME280;14425;56.136;40.360;2023-05-08T12:38:15;100940.63;;;14.01;28.63
26487;BME280;14425;56.136;40.360;2023-05-08T12:40:43;100946.06;;;13.86;29.71
26487;BME280;14425;56.136;40.360;2023-05-08T12:43:09;100951.25;;;14.49;29.32
26487;BME280;14425;56.136;40.360;2023-05-08T12:45:39;100942.66;;;13.87;29.68
26487;BME280;14425;56.136;40.360;2023-05-08T12:48:07;100952.88;;;13.25;29.27
26487;BME280;14425;56.136;40.360;2023-05-08T12:50:35;100951.63;;;12.80;30.46
26487;BME280;14425;56.136;40.360;2023-05-08T12:53:05;100944.56;;;12.57;30.41
26487;BME280;14425;56.136;40.360;2023-05-08T12:55:33;100939.31;;;14.11;29.70
26487;BME280;14425;56.136;40.360;2023-05-08T13:00:42;100920.97;;;16.14;25.70
26487;BME280;14425;56.136;40.360;2023-05-08T13:03:09;100926.22;;;16.43;26.48
26487;BME280;14425;56.136;40.360;2023-05-08T13:05:36;100928.75;;;14.48;26.36
26487;BME280;14425;56.136;40.360;2023-05-08T13:08:05;100929.63;;;13.45;27.96
26487;BME280;14425;56.136;40.360;2023-05-08T13:10:53;100937.19;;;13.81;28.22
26487;BME280;14425;56.136;40.360;2023-05-08T13:13:39;100926.75;;;14.42;28.14
26487;BME280;14425;56.136;40.360;2023-05-08T13:16:05;100934.81;;;14.28;28.36
26487;BME280;14425;56.136;40.360;2023-05-08T13:18:32;100928.25;;;14.15;27.71
26487;BME280;14425;56.136;40.360;2023-05-08T13:21:00;100925.31;;;13.86;28.65
26487;BME280;14425;56.136;40.360;2023-05-08T13:23:26;100924.28;;;14.23;28.07
26487;BME280;14425;56.136;40.360;2023-05-08T13:25:51;100923.81;;;13.91;27.69
26487;BME280;14425;56.136;40.360;2023-05-08T13:28:17;100927.81;;;13.44;28.41
26487;BME280;14425;56.136;40.360;2023-05-08T13:30:42;100931.78;;;12.98;28.75